sensor_id;sensor_type;location;lat;lon;timestamp;temperature;humidity
68842;SHT35;55849;48.482;2.332;2023-01-08T00:01:31;12.59;78.01
68842;SHT35;55849;48.482;2.332;2023-01-08T00:04:33;12.60;77.97
68842;SHT35;55849;48.482;2.332;2023-01-08T00:07:35;12.59;77.86
68842;SHT35;55849;48.482;2.332;2023-01-08T00:10:37;12.59;77.68
68842;SHT35;55849;48.482;2.332;2023-01-08T00:13:39;12.60;77.61
68842;SHT35;55849;48.482;2.332;2023-01-08T00:16:42;12.60;77.66
68842;SHT35;55849;48.482;2.332;2023-01-08T00:19:44;12.56;77.70
68842;SHT35;55849;48.482;2.332;2023-01-08T00:22:47;12.57;77.64
68842;SHT35;55849;48.482;2.332;2023-01-08T00:25:49;12.56;77.71
68842;SHT35;55849;48.482;2.332;2023-01-08T00:28:51;12.53;77.70
68842;SHT35;55849;48.482;2.332;2023-01-08T00:31:54;12.53;77.70
68842;SHT35;55849;48.482;2.332;2023-01-08T00:34:55;12.53;77.68
68842;SHT35;55849;48.482;2.332;2023-01-08T00:37:57;12.51;77.69
68842;SHT35;55849;48.482;2.332;2023-01-08T00:40:58;12.50;77.70
68842;SHT35;55849;48.482;2.332;2023-01-08T00:44:00;12.51;77.65
68842;SHT35;55849;48.482;2.332;2023-01-08T00:47:03;12.50;77.61
68842;SHT35;55849;48.482;2.332;2023-01-08T00:50:06;12.46;77.55
68842;SHT35;55849;48.482;2.332;2023-01-08T00:53:07;12.44;77.56
68842;SHT35;55849;48.482;2.332;2023-01-08T00:56:09;12.46;77.50
68842;SHT35;55849;48.482;2.332;2023-01-08T00:59:11;12.44;77.41
68842;SHT35;55849;48.482;2.332;2023-01-08T01:02:14;12.43;77.45
68842;SHT35;55849;48.482;2.332;2023-01-08T01:05:16;12.44;77.36
68842;SHT35;55849;48.482;2.332;2023-01-08T01:08:18;12.42;77.33
68842;SHT35;55849;48.482;2.332;2023-01-08T01:11:21;12.37;77.29
68842;SHT35;55849;48.482;2.332;2023-01-08T01:14:23;12.33;77.38
68842;SHT35;55849;48.482;2.332;2023-01-08T01:17:26;12.30;77.30
68842;SHT35;55849;48.482;2.332;2023-01-08T01:20:28;12.29;77.26
68842;SHT35;55849;48.482;2.332;2023-01-08T01:23:30;12.25;77.30
68842;SHT35;55849;48.482;2.332;2023-01-08T01:26:32;12.24;77.26
68842;SHT35;55849;48.482;2.332;2023-01-08T01:29:34;12.21;77.10
68842;SHT35;55849;48.482;2.332;2023-01-08T01:32:37;12.21;77.04
68842;SHT35;55849;48.482;2.332;2023-01-08T01:35:39;12.22;77.18
68842;SHT35;55849;48.482;2.332;2023-01-08T01:38:42;12.18;77.01
68842;SHT35;55849;48.482;2.332;2023-01-08T01:41:44;12.21;76.97
68842;SHT35;55849;48.482;2.332;2023-01-08T01:44:46;12.19;76.95
68842;SHT35;55849;48.482;2.332;2023-01-08T01:47:53;12.19;76.86
68842;SHT35;55849;48.482;2.332;2023-01-08T01:50:56;12.18;76.94
68842;SHT35;55849;48.482;2.332;2023-01-08T01:53:58;12.18;76.89
68842;SHT35;55849;48.482;2.332;2023-01-08T01:57:02;12.16;76.92
68842;SHT35;55849;48.482;2.332;2023-01-08T02:00:07;12.16;76.96
68842;SHT35;55849;48.482;2.332;2023-01-08T02:03:12;12.15;76.92
68842;SHT35;55849;48.482;2.332;2023-01-08T02:06:20;12.15;76.88
68842;SHT35;55849;48.482;2.332;2023-01-08T02:09:35;12.16;76.89
68842;SHT35;55849;48.482;2.332;2023-01-08T02:12:44;12.15;76.96
68842;SHT35;55849;48.482;2.332;2023-01-08T02:15:54;12.15;76.92
68842;SHT35;55849;48.482;2.332;2023-01-08T02:19:01;12.12;76.87
68842;SHT35;55849;48.482;2.332;2023-01-08T02:22:13;12.15;76.94
68842;SHT35;55849;48.482;2.332;2023-01-08T02:25:28;12.09;77.01
68842;SHT35;55849;48.482;2.332;2023-01-08T02:28:36;12.05;77.08
68842;SHT35;55849;48.482;2.332;2023-01-08T02:31:40;12.09;77.06
68842;SHT35;55849;48.482;2.332;2023-01-08T02:34:43;12.05;77.02
68842;SHT35;55849;48.482;2.332;2023-01-08T02:37:45;12.04;77.10
68842;SHT35;55849;48.482;2.332;2023-01-08T02:40:53;12.04;77.12
68842;SHT35;55849;48.482;2.332;2023-01-08T02:43:59;12.04;77.12
68842;SHT35;55849;48.482;2.332;2023-01-08T02:47:04;12.02;77.11
68842;SHT35;55849;48.482;2.332;2023-01-08T02:50:13;11.99;77.14
68842;SHT35;55849;48.482;2.332;2023-01-08T02:53:18;12.05;77.19
68842;SHT35;55849;48.482;2.332;2023-01-08T02:56:23;12.05;77.00
68842;SHT35;55849;48.482;2.332;2023-01-08T02:59:30;12.05;77.14
68842;SHT35;55849;48.482;2.332;2023-01-08T03:02:34;12.06;77.11
68842;SHT35;55849;48.482;2.332;2023-01-08T03:05:39;12.01;77.09
68842;SHT35;55849;48.482;2.332;2023-01-08T03:08:45;12.05;77.19
68842;SHT35;55849;48.482;2.332;2023-01-08T03:11:51;12.02;77.14
68842;SHT35;55849;48.482;2.332;2023-01-08T03:14:57;12.01;77.26
68842;SHT35;55849;48.482;2.332;2023-01-08T03:18:03;12.04;77.29
68842;SHT35;55849;48.482;2.332;2023-01-08T03:21:06;12.04;77.14
68842;SHT35;55849;48.482;2.332;2023-01-08T03:24:09;12.02;77.16
68842;SHT35;55849;48.482;2.332;2023-01-08T03:27:15;12.04;77.15
68842;SHT35;55849;48.482;2.332;2023-01-08T03:30:20;12.02;77.23
68842;SHT35;55849;48.482;2.332;2023-01-08T03:33:23;11.99;77.30
68842;SHT35;55849;48.482;2.332;2023-01-08T03:36:27;11.99;77.32
68842;SHT35;55849;48.482;2.332;2023-01-08T03:39:34;11.99;77.39
68842;SHT35;55849;48.482;2.332;2023-01-08T03:42:38;12.01;77.44
68842;SHT35;55849;48.482;2.332;2023-01-08T03:45:47;11.99;77.38
68842;SHT35;55849;48.482;2.332;2023-01-08T03:48:50;11.98;77.43
68842;SHT35;55849;48.482;2.332;2023-01-08T03:51:52;11.98;77.50
68842;SHT35;55849;48.482;2.332;2023-01-08T03:54:53;12.01;77.38
68842;SHT35;55849;48.482;2.332;2023-01-08T03:57:55;11.99;77.37
68842;SHT35;55849;48.482;2.332;2023-01-08T04:00:59;12.05;77.34
68842;SHT35;55849;48.482;2.332;2023-01-08T04:04:01;12.05;77.23
68842;SHT35;55849;48.482;2.332;2023-01-08T04:07:04;12.04;77.15
68842;SHT35;55849;48.482;2.332;2023-01-08T04:10:06;12.08;76.99
68842;SHT35;55849;48.482;2.332;2023-01-08T04:13:08;12.05;76.97
68842;SHT35;55849;48.482;2.332;2023-01-08T04:16:11;12.04;77.03
68842;SHT35;55849;48.482;2.332;2023-01-08T04:19:13;12.08;76.88
68842;SHT35;55849;48.482;2.332;2023-01-08T04:22:15;12.05;76.90
68842;SHT35;55849;48.482;2.332;2023-01-08T04:25:17;12.06;76.74
68842;SHT35;55849;48.482;2.332;2023-01-08T04:28:19;12.02;76.79
68842;SHT35;55849;48.482;2.332;2023-01-08T04:31:22;12.01;76.79
68842;SHT35;55849;48.482;2.332;2023-01-08T04:34:24;12.02;76.80
68842;SHT35;55849;48.482;2.332;2023-01-08T04:37:25;12.02;76.71
68842;SHT35;55849;48.482;2.332;2023-01-08T04:40:27;11.99;76.85
68842;SHT35;55849;48.482;2.332;2023-01-08T04:43:29;12.01;76.58
68842;SHT35;55849;48.482;2.332;2023-01-08T04:46:33;11.98;76.62
68842;SHT35;55849;48.482;2.332;2023-01-08T04:49:34;12.05;76.88
68842;SHT35;55849;48.482;2.332;2023-01-08T04:52:36;12.06;78.68
68842;SHT35;55849;48.482;2.332;2023-01-08T04:55:38;12.06;78.67
68842;SHT35;55849;48.482;2.332;2023-01-08T04:58:39;12.06;78.69
68842;SHT35;55849;48.482;2.332;2023-01-08T05:01:42;12.05;78.71
68842;SHT35;55849;48.482;2.332;2023-01-08T05:04:44;12.04;78.68
68842;SHT35;55849;48.482;2.332;2023-01-08T05:07:46;11.99;78.54
68842;SHT35;55849;48.482;2.332;2023-01-08T05:10:47;11.97;79.19
68842;SHT35;55849;48.482;2.332;2023-01-08T05:13:50;11.91;79.39
68842;SHT35;55849;48.482;2.332;2023-01-08T05:16:53;11.90;79.22
68842;SHT35;55849;48.482;2.332;2023-01-08T05:19:55;11.90;79.48
68842;SHT35;55849;48.482;2.332;2023-01-08T05:22:57;11.87;79.54
68842;SHT35;55849;48.482;2.332;2023-01-08T05:25:59;11.88;79.73
68842;SHT35;55849;48.482;2.332;2023-01-08T05:29:01;11.85;79.82
68842;SHT35;55849;48.482;2.332;2023-01-08T05:32:05;11.88;79.83
68842;SHT35;55849;48.482;2.332;2023-01-08T05:35:08;11.87;79.82
68842;SHT35;55849;48.482;2.332;2023-01-08T05:38:10;11.87;79.77
68842;SHT35;55849;48.482;2.332;2023-01-08T05:41:11;11.91;79.96
68842;SHT35;55849;48.482;2.332;2023-01-08T05:44:13;11.91;80.22
68842;SHT35;55849;48.482;2.332;2023-01-08T05:47:16;11.91;79.49
68842;SHT35;55849;48.482;2.332;2023-01-08T05:50:18;11.87;79.31
68842;SHT35;55849;48.482;2.332;2023-01-08T05:53:19;11.88;79.66
68842;SHT35;55849;48.482;2.332;2023-01-08T05:56:21;11.87;79.60
68842;SHT35;55849;48.482;2.332;2023-01-08T05:59:23;11.85;79.32
68842;SHT35;55849;48.482;2.332;2023-01-08T06:02:26;11.81;79.29
68842;SHT35;55849;48.482;2.332;2023-01-08T06:05:29;11.80;79.34
68842;SHT35;55849;48.482;2.332;2023-01-08T06:08:33;11.75;79.12
68842;SHT35;55849;48.482;2.332;2023-01-08T06:11:34;11.73;79.34
68842;SHT35;55849;48.482;2.332;2023-01-08T06:14:36;11.73;79.41
68842;SHT35;55849;48.482;2.332;2023-01-08T06:17:39;11.69;79.39
68842;SHT35;55849;48.482;2.332;2023-01-08T06:20:41;11.66;79.71
68842;SHT35;55849;48.482;2.332;2023-01-08T06:23:43;11.66;79.63
68842;SHT35;55849;48.482;2.332;2023-01-08T06:26:44;11.64;79.34
68842;SHT35;55849;48.482;2.332;2023-01-08T06:29:46;11.64;79.54
68842;SHT35;55849;48.482;2.332;2023-01-08T06:32:49;11.64;79.21
68842;SHT35;55849;48.482;2.332;2023-01-08T06:35:58;11.62;79.49
68842;SHT35;55849;48.482;2.332;2023-01-08T06:39:00;11.63;79.38
68842;SHT35;55849;48.482;2.332;2023-01-08T06:42:02;11.60;79.44
68842;SHT35;55849;48.482;2.332;2023-01-08T06:45:04;11.59;79.40
68842;SHT35;55849;48.482;2.332;2023-01-08T06:48:08;11.55;79.69
68842;SHT35;55849;48.482;2.332;2023-01-08T06:51:09;11.55;79.48
68842;SHT35;55849;48.482;2.332;2023-01-08T06:54:11;11.56;79.32
68842;SHT35;55849;48.482;2.332;2023-01-08T06:57:12;11.55;79.24
68842;SHT35;55849;48.482;2.332;2023-01-08T07:00:14;11.55;79.47
68842;SHT35;55849;48.482;2.332;2023-01-08T07:03:18;11.52;79.74
68842;SHT35;55849;48.482;2.332;2023-01-08T07:06:21;11.50;79.49
68842;SHT35;55849;48.482;2.332;2023-01-08T07:09:23;11.49;79.47
68842;SHT35;55849;48.482;2.332;2023-01-08T07:12:24;11.50;79.40
68842;SHT35;55849;48.482;2.332;2023-01-08T07:15:26;11.49;79.18
68842;SHT35;55849;48.482;2.332;2023-01-08T07:18:29;11.44;79.11
68842;SHT35;55849;48.482;2.332;2023-01-08T07:21:31;11.42;78.73
68842;SHT35;55849;48.482;2.332;2023-01-08T07:24:32;11.40;79.13
68842;SHT35;55849;48.482;2.332;2023-01-08T07:27:34;11.42;78.95
68842;SHT35;55849;48.482;2.332;2023-01-08T07:30:36;11.39;78.27
68842;SHT35;55849;48.482;2.332;2023-01-08T07:33:39;11.38;78.21
68842;SHT35;55849;48.482;2.332;2023-01-08T07:36:40;11.32;78.35
68842;SHT35;55849;48.482;2.332;2023-01-08T07:39:42;11.26;78.35
68842;SHT35;55849;48.482;2.332;2023-01-08T07:42:44;11.25;78.19
68842;SHT35;55849;48.482;2.332;2023-01-08T07:45:45;11.22;78.69
68842;SHT35;55849;48.482;2.332;2023-01-08T07:48:48;11.22;77.74
68842;SHT35;55849;48.482;2.332;2023-01-08T07:51:50;11.21;78.71
68842;SHT35;55849;48.482;2.332;2023-01-08T07:54:52;11.25;78.11
68842;SHT35;55849;48.482;2.332;2023-01-08T07:57:53;11.25;78.98
68842;SHT35;55849;48.482;2.332;2023-01-08T08:00:55;11.23;78.71
68842;SHT35;55849;48.482;2.332;2023-01-08T08:03:59;11.23;78.77
68842;SHT35;55849;48.482;2.332;2023-01-08T08:07:00;11.21;78.61
68842;SHT35;55849;48.482;2.332;2023-01-08T08:10:02;11.18;78.58
68842;SHT35;55849;48.482;2.332;2023-01-08T08:13:04;11.14;78.56
68842;SHT35;55849;48.482;2.332;2023-01-08T08:16:06;11.11;78.75
68842;SHT35;55849;48.482;2.332;2023-01-08T08:19:11;11.10;78.64
68842;SHT35;55849;48.482;2.332;2023-01-08T08:22:13;11.11;78.68
68842;SHT35;55849;48.482;2.332;2023-01-08T08:25:15;11.04;78.70
68842;SHT35;55849;48.482;2.332;2023-01-08T08:28:17;10.97;78.73
68842;SHT35;55849;48.482;2.332;2023-01-08T08:31:18;10.98;78.69
68842;SHT35;55849;48.482;2.332;2023-01-08T08:34:22;11.01;78.56
68842;SHT35;55849;48.482;2.332;2023-01-08T08:37:23;11.00;78.97
68842;SHT35;55849;48.482;2.332;2023-01-08T08:40:25;10.98;78.80
68842;SHT35;55849;48.482;2.332;2023-01-08T08:43:27;10.95;78.87
68842;SHT35;55849;48.482;2.332;2023-01-08T08:46:29;10.95;78.70
68842;SHT35;55849;48.482;2.332;2023-01-08T08:49:32;10.93;79.09
68842;SHT35;55849;48.482;2.332;2023-01-08T08:52:33;10.94;79.20
68842;SHT35;55849;48.482;2.332;2023-01-08T08:55:36;10.95;78.73
68842;SHT35;55849;48.482;2.332;2023-01-08T08:58:38;10.91;78.84
68842;SHT35;55849;48.482;2.332;2023-01-08T09:01:41;10.88;78.88
68842;SHT35;55849;48.482;2.332;2023-01-08T09:04:44;10.88;79.15
68842;SHT35;55849;48.482;2.332;2023-01-08T09:07:45;10.93;79.06
68842;SHT35;55849;48.482;2.332;2023-01-08T09:10:47;10.91;78.88
68842;SHT35;55849;48.482;2.332;2023-01-08T09:13:49;10.94;79.11
68842;SHT35;55849;48.482;2.332;2023-01-08T09:16:50;10.95;79.10
68842;SHT35;55849;48.482;2.332;2023-01-08T09:19:53;10.97;79.27
68842;SHT35;55849;48.482;2.332;2023-01-08T09:22:57;10.98;79.37
68842;SHT35;55849;48.482;2.332;2023-01-08T09:25:59;11.00;79.30
68842;SHT35;55849;48.482;2.332;2023-01-08T09:29:01;11.01;79.51
68842;SHT35;55849;48.482;2.332;2023-01-08T09:32:04;11.03;78.83
68842;SHT35;55849;48.482;2.332;2023-01-08T09:35:08;11.11;79.51
68842;SHT35;55849;48.482;2.332;2023-01-08T09:38:10;11.15;79.04
68842;SHT35;55849;48.482;2.332;2023-01-08T09:41:16;11.18;79.48
68842;SHT35;55849;48.482;2.332;2023-01-08T09:44:21;11.21;79.54
68842;SHT35;55849;48.482;2.332;2023-01-08T09:47:28;11.21;79.70
68842;SHT35;55849;48.482;2.332;2023-01-08T09:50:32;11.25;79.42
68842;SHT35;55849;48.482;2.332;2023-01-08T09:53:34;11.25;79.29
68842;SHT35;55849;48.482;2.332;2023-01-08T09:56:36;11.25;79.37
68842;SHT35;55849;48.482;2.332;2023-01-08T09:59:38;11.25;78.94
68842;SHT35;55849;48.482;2.332;2023-01-08T10:02:40;11.23;79.00
68842;SHT35;55849;48.482;2.332;2023-01-08T10:05:43;11.25;79.06
68842;SHT35;55849;48.482;2.332;2023-01-08T10:08:45;11.28;79.20
68842;SHT35;55849;48.482;2.332;2023-01-08T10:11:47;11.28;79.28
68842;SHT35;55849;48.482;2.332;2023-01-08T10:14:51;11.31;79.59
68842;SHT35;55849;48.482;2.332;2023-01-08T10:17:59;11.36;79.60
68842;SHT35;55849;48.482;2.332;2023-01-08T10:21:04;11.43;79.11
68842;SHT35;55849;48.482;2.332;2023-01-08T10:24:06;11.47;79.09
68842;SHT35;55849;48.482;2.332;2023-01-08T10:27:12;11.52;79.20
68842;SHT35;55849;48.482;2.332;2023-01-08T10:30:16;11.57;78.96
68842;SHT35;55849;48.482;2.332;2023-01-08T10:33:22;11.62;78.49
68842;SHT35;55849;48.482;2.332;2023-01-08T10:36:26;11.66;78.41
68842;SHT35;55849;48.482;2.332;2023-01-08T10:39:29;11.66;78.88
68842;SHT35;55849;48.482;2.332;2023-01-08T10:42:33;11.67;78.36
68842;SHT35;55849;48.482;2.332;2023-01-08T10:45:36;11.71;78.59
68842;SHT35;55849;48.482;2.332;2023-01-08T10:48:46;11.73;77.84
68842;SHT35;55849;48.482;2.332;2023-01-08T10:51:51;11.74;78.57
68842;SHT35;55849;48.482;2.332;2023-01-08T10:54:54;11.77;78.66
68842;SHT35;55849;48.482;2.332;2023-01-08T10:57:58;11.80;78.52
68842;SHT35;55849;48.482;2.332;2023-01-08T11:01:11;11.84;78.46
68842;SHT35;55849;48.482;2.332;2023-01-08T11:04:20;11.90;78.39
68842;SHT35;55849;48.482;2.332;2023-01-08T11:07:24;11.92;78.03
68842;SHT35;55849;48.482;2.332;2023-01-08T11:10:28;11.91;77.95
68842;SHT35;55849;48.482;2.332;2023-01-08T11:13:30;11.97;78.31
68842;SHT35;55849;48.482;2.332;2023-01-08T11:16:33;12.04;78.69
68842;SHT35;55849;48.482;2.332;2023-01-08T11:19:36;12.08;78.38
68842;SHT35;55849;48.482;2.332;2023-01-08T11:22:40;12.15;78.11
68842;SHT35;55849;48.482;2.332;2023-01-08T11:25:44;12.19;77.98
68842;SHT35;55849;48.482;2.332;2023-01-08T11:28:55;12.21;77.66
68842;SHT35;55849;48.482;2.332;2023-01-08T11:32:08;12.22;77.51
68842;SHT35;55849;48.482;2.332;2023-01-08T11:35:14;12.24;77.32
68842;SHT35;55849;48.482;2.332;2023-01-08T11:38:19;12.22;77.45
68842;SHT35;55849;48.482;2.332;2023-01-08T11:41:32;12.26;77.42
68842;SHT35;55849;48.482;2.332;2023-01-08T11:44:42;12.25;77.28
68842;SHT35;55849;48.482;2.332;2023-01-08T11:48:09;12.30;77.80
68842;SHT35;55849;48.482;2.332;2023-01-08T11:51:38;12.32;77.53
68842;SHT35;55849;48.482;2.332;2023-01-08T11:55:01;12.39;77.15
68842;SHT35;55849;48.482;2.332;2023-01-08T11:58:20;12.46;77.91
68842;SHT35;55849;48.482;2.332;2023-01-08T12:01:34;12.56;77.84
68842;SHT35;55849;48.482;2.332;2023-01-08T12:08:12;12.71;76.95
68842;SHT35;55849;48.482;2.332;2023-01-08T12:11:22;12.78;76.90
68842;SHT35;55849;48.482;2.332;2023-01-08T12:14:36;12.83;76.77
68842;SHT35;55849;48.482;2.332;2023-01-08T12:18:14;12.85;76.35
68842;SHT35;55849;48.482;2.332;2023-01-08T12:21:28;12.87;75.96
68842;SHT35;55849;48.482;2.332;2023-01-08T12:24:59;12.84;75.60
68842;SHT35;55849;48.482;2.332;2023-01-08T12:28:18;12.87;75.75
68842;SHT35;55849;48.482;2.332;2023-01-08T12:31:32;12.88;75.54
68842;SHT35;55849;48.482;2.332;2023-01-08T12:34:45;12.92;75.43
68842;SHT35;55849;48.482;2.332;2023-01-08T12:37:51;12.96;75.55
68842;SHT35;55849;48.482;2.332;2023-01-08T12:40:57;13.01;75.57
68842;SHT35;55849;48.482;2.332;2023-01-08T12:44:03;13.08;74.98
68842;SHT35;55849;48.482;2.332;2023-01-08T12:47:07;13.09;75.03
68842;SHT35;55849;48.482;2.332;2023-01-08T12:50:32;13.10;74.83
68842;SHT35;55849;48.482;2.332;2023-01-08T12:53:43;13.10;74.76
68842;SHT35;55849;48.482;2.332;2023-01-08T12:56:52;13.10;74.43
68842;SHT35;55849;48.482;2.332;2023-01-08T13:00:01;13.08;74.51
68842;SHT35;55849;48.482;2.332;2023-01-08T13:03:09;13.06;74.32
68842;SHT35;55849;48.482;2.332;2023-01-08T13:06:16;13.02;74.49
68842;SHT35;55849;48.482;2.332;2023-01-08T13:09:23;13.02;74.57
68842;SHT35;55849;48.482;2.332;2023-01-08T13:12:34;13.01;74.63
68842;SHT35;55849;48.482;2.332;2023-01-08T13:15:37;12.98;74.87
68842;SHT35;55849;48.482;2.332;2023-01-08T13:18:39;12.98;74.81
68842;SHT35;55849;48.482;2.332;2023-01-08T13:21:48;12.96;75.48
68842;SHT35;55849;48.482;2.332;2023-01-08T13:24:50;12.94;75.89
68842;SHT35;55849;48.482;2.332;2023-01-08T13:27:53;12.92;76.56
68842;SHT35;55849;48.482;2.332;2023-01-08T13:31:06;12.94;76.93
68842;SHT35;55849;48.482;2.332;2023-01-08T13:34:20;12.92;76.54
68842;SHT35;55849;48.482;2.332;2023-01-08T13:37:24;12.91;76.93
68842;SHT35;55849;48.482;2.332;2023-01-08T13:40:37;12.91;76.85
68842;SHT35;55849;48.482;2.332;2023-01-08T13:43:40;12.88;76.56
68842;SHT35;55849;48.482;2.332;2023-01-08T13:46:52;12.85;76.59
68842;SHT35;55849;48.482;2.332;2023-01-08T13:49:55;12.84;76.97
68842;SHT35;55849;48.482;2.332;2023-01-08T13:52:58;12.80;76.48
68842;SHT35;55849;48.482;2.332;2023-01-08T13:56:04;12.83;77.37
68842;SHT35;55849;48.482;2.332;2023-01-08T13:59:19;12.83;76.65
68842;SHT35;55849;48.482;2.332;2023-01-08T14:02:26;12.81;77.37
68842;SHT35;55849;48.482;2.332;2023-01-08T14:05:30;12.81;77.21
68842;SHT35;55849;48.482;2.332;2023-01-08T14:08:34;12.81;77.22
68842;SHT35;55849;48.482;2.332;2023-01-08T14:11:41;12.81;77.24
68842;SHT35;55849;48.482;2.332;2023-01-08T14:14:47;12.78;77.14
68842;SHT35;55849;48.482;2.332;2023-01-08T14:17:51;12.80;77.41
68842;SHT35;55849;48.482;2.332;2023-01-08T14:20:53;12.75;77.84
68842;SHT35;55849;48.482;2.332;2023-01-08T14:23:55;12.75;77.67
68842;SHT35;55849;48.482;2.332;2023-01-08T14:26:58;12.75;78.09
68842;SHT35;55849;48.482;2.332;2023-01-08T14:30:00;12.77;77.80
68842;SHT35;55849;48.482;2.332;2023-01-08T14:33:09;12.78;78.14
68842;SHT35;55849;48.482;2.332;2023-01-08T14:36:11;12.78;78.03
68842;SHT35;55849;48.482;2.332;2023-01-08T14:39:21;12.84;78.33
68842;SHT35;55849;48.482;2.332;2023-01-08T14:42:29;12.77;78.38
68842;SHT35;55849;48.482;2.332;2023-01-08T14:45:47;12.78;78.18
68842;SHT35;55849;48.482;2.332;2023-01-08T14:48:52;12.78;78.62
68842;SHT35;55849;48.482;2.332;2023-01-08T14:51:56;12.75;78.95
68842;SHT35;55849;48.482;2.332;2023-01-08T14:55:00;12.69;78.96
68842;SHT35;55849;48.482;2.332;2023-01-08T14:58:11;12.69;79.08
68842;SHT35;55849;48.482;2.332;2023-01-08T15:01:17;12.71;79.20
68842;SHT35;55849;48.482;2.332;2023-01-08T15:04:21;12.68;79.30
68842;SHT35;55849;48.482;2.332;2023-01-08T15:07:25;12.68;79.25
68842;SHT35;55849;48.482;2.332;2023-01-08T15:10:33;12.67;79.19
68842;SHT35;55849;48.482;2.332;2023-01-08T15:13:36;12.64;78.94
68842;SHT35;55849;48.482;2.332;2023-01-08T15:16:40;12.61;79.43
68842;SHT35;55849;48.482;2.332;2023-01-08T15:19:46;12.64;79.02
68842;SHT35;55849;48.482;2.332;2023-01-08T15:22:49;12.64;79.04
68842;SHT35;55849;48.482;2.332;2023-01-08T15:25:51;12.61;79.06
68842;SHT35;55849;48.482;2.332;2023-01-08T15:28:55;12.59;78.85
68842;SHT35;55849;48.482;2.332;2023-01-08T15:32:07;12.60;79.14
68842;SHT35;55849;48.482;2.332;2023-01-08T15:35:15;12.59;78.89
68842;SHT35;55849;48.482;2.332;2023-01-08T15:38:18;12.60;79.20
68842;SHT35;55849;48.482;2.332;2023-01-08T15:41:23;12.59;78.96
68842;SHT35;55849;48.482;2.332;2023-01-08T15:44:42;12.59;78.58
68842;SHT35;55849;48.482;2.332;2023-01-08T15:47:44;12.57;78.69
68842;SHT35;55849;48.482;2.332;2023-01-08T15:50:47;12.61;78.72
68842;SHT35;55849;48.482;2.332;2023-01-08T15:53:48;12.60;78.67
68842;SHT35;55849;48.482;2.332;2023-01-08T15:56:50;12.59;78.59
68842;SHT35;55849;48.482;2.332;2023-01-08T15:59:52;12.57;78.79
68842;SHT35;55849;48.482;2.332;2023-01-08T16:02:54;12.60;78.49
68842;SHT35;55849;48.482;2.332;2023-01-08T16:06:04;12.57;78.43
68842;SHT35;55849;48.482;2.332;2023-01-08T16:09:06;12.56;78.23
68842;SHT35;55849;48.482;2.332;2023-01-08T16:12:08;12.59;78.04
68842;SHT35;55849;48.482;2.332;2023-01-08T16:15:10;12.60;78.18
68842;SHT35;55849;48.482;2.332;2023-01-08T16:18:12;12.56;77.60
68842;SHT35;55849;48.482;2.332;2023-01-08T16:21:15;12.57;78.24
68842;SHT35;55849;48.482;2.332;2023-01-08T16:24:16;12.57;77.99
68842;SHT35;55849;48.482;2.332;2023-01-08T16:27:18;12.50;77.48
68842;SHT35;55849;48.482;2.332;2023-01-08T16:30:20;12.51;77.88
68842;SHT35;55849;48.482;2.332;2023-01-08T16:33:22;12.46;77.27
68842;SHT35;55849;48.482;2.332;2023-01-08T16:36:25;12.46;77.87
68842;SHT35;55849;48.482;2.332;2023-01-08T16:39:27;12.44;77.70
68842;SHT35;55849;48.482;2.332;2023-01-08T16:42:28;12.40;77.56
68842;SHT35;55849;48.482;2.332;2023-01-08T16:45:30;12.40;77.41
68842;SHT35;55849;48.482;2.332;2023-01-08T16:48:32;12.39;77.30
68842;SHT35;55849;48.482;2.332;2023-01-08T16:51:35;12.33;76.88
68842;SHT35;55849;48.482;2.332;2023-01-08T16:54:37;12.26;77.28
68842;SHT35;55849;48.482;2.332;2023-01-08T16:57:38;12.26;76.71
68842;SHT35;55849;48.482;2.332;2023-01-08T17:00:40;12.25;77.35
68842;SHT35;55849;48.482;2.332;2023-01-08T17:03:41;12.22;77.14
68842;SHT35;55849;48.482;2.332;2023-01-08T17:06:45;12.22;77.20
68842;SHT35;55849;48.482;2.332;2023-01-08T17:09:47;12.22;76.91
68842;SHT35;55849;48.482;2.332;2023-01-08T17:12:48;12.18;77.25
68842;SHT35;55849;48.482;2.332;2023-01-08T17:15:50;12.16;76.67
68842;SHT35;55849;48.482;2.332;2023-01-08T17:18:52;12.15;76.76
68842;SHT35;55849;48.482;2.332;2023-01-08T17:21:55;12.09;76.81
68842;SHT35;55849;48.482;2.332;2023-01-08T17:24:57;12.09;77.78
68842;SHT35;55849;48.482;2.332;2023-01-08T17:27:58;12.08;77.27
68842;SHT35;55849;48.482;2.332;2023-01-08T17:31:01;12.02;77.04
68842;SHT35;55849;48.482;2.332;2023-01-08T17:34:02;12.02;77.49
68842;SHT35;55849;48.482;2.332;2023-01-08T17:37:05;12.01;77.14
68842;SHT35;55849;48.482;2.332;2023-01-08T17:40:08;11.94;77.26
68842;SHT35;55849;48.482;2.332;2023-01-08T17:43:10;11.90;77.21
68842;SHT35;55849;48.482;2.332;2023-01-08T17:46:12;11.82;77.47
68842;SHT35;55849;48.482;2.332;2023-01-08T17:49:14;11.80;77.52
68842;SHT35;55849;48.482;2.332;2023-01-08T17:52:18;11.78;77.79
68842;SHT35;55849;48.482;2.332;2023-01-08T17:55:20;11.75;78.48
68842;SHT35;55849;48.482;2.332;2023-01-08T17:58:21;11.75;78.16
68842;SHT35;55849;48.482;2.332;2023-01-08T18:01:23;11.71;78.79
68842;SHT35;55849;48.482;2.332;2023-01-08T18:04:25;11.70;78.70
68842;SHT35;55849;48.482;2.332;2023-01-08T18:07:28;11.66;79.03
68842;SHT35;55849;48.482;2.332;2023-01-08T18:10:32;11.67;79.20
68842;SHT35;55849;48.482;2.332;2023-01-08T18:13:34;11.63;79.26
68842;SHT35;55849;48.482;2.332;2023-01-08T18:16:37;11.59;79.19
68842;SHT35;55849;48.482;2.332;2023-01-08T18:19:39;11.56;79.65
68842;SHT35;55849;48.482;2.332;2023-01-08T18:22:42;11.55;79.96
68842;SHT35;55849;48.482;2.332;2023-01-08T18:25:45;11.59;79.99
68842;SHT35;55849;48.482;2.332;2023-01-08T18:28:47;11.60;79.96
68842;SHT35;55849;48.482;2.332;2023-01-08T18:31:49;11.59;80.25
68842;SHT35;55849;48.482;2.332;2023-01-08T18:34:51;11.57;79.92
68842;SHT35;55849;48.482;2.332;2023-01-08T18:37:54;11.55;80.25
68842;SHT35;55849;48.482;2.332;2023-01-08T18:40:56;11.50;80.12
68842;SHT35;55849;48.482;2.332;2023-01-08T18:43:58;11.43;80.79
68842;SHT35;55849;48.482;2.332;2023-01-08T18:47:00;11.46;80.97
68842;SHT35;55849;48.482;2.332;2023-01-08T18:50:01;11.50;80.85
68842;SHT35;55849;48.482;2.332;2023-01-08T18:53:04;11.50;80.81
68842;SHT35;55849;48.482;2.332;2023-01-08T18:56:08;11.52;80.69
68842;SHT35;55849;48.482;2.332;2023-01-08T18:59:11;11.52;80.47
68842;SHT35;55849;48.482;2.332;2023-01-08T19:02:17;11.52;80.74
68842;SHT35;55849;48.482;2.332;2023-01-08T19:05:20;11.55;80.47
68842;SHT35;55849;48.482;2.332;2023-01-08T19:08:24;11.55;80.72
68842;SHT35;55849;48.482;2.332;2023-01-08T19:11:26;11.52;80.62
68842;SHT35;55849;48.482;2.332;2023-01-08T19:14:28;11.50;80.42
68842;SHT35;55849;48.482;2.332;2023-01-08T19:17:29;11.53;80.70
68842;SHT35;55849;48.482;2.332;2023-01-08T19:20:32;11.50;80.77
68842;SHT35;55849;48.482;2.332;2023-01-08T19:23:35;11.49;80.81
68842;SHT35;55849;48.482;2.332;2023-01-08T19:26:37;11.46;80.63